Time;durP1;ratioP1;P1;durP2;ratioP2;P2;SDS_P1;SDS_P2;PMS_P1;PMS_P2;Temp;Humidity;BMP_temperature;BMP_pressure;BME280_temperature;BME280_humidity;BME280_pressure;Samples;Min_cycle;Max_cycle;Signal;HPM_P1;HPM_P2
2022/04/27 00:00:03;;;;;;;9.90;7.57;;;8.80;99.90;;;;;;5089243;28;20100;-48
2022/04/27 00:02:30;;;;;;;9.75;6.35;;;8.80;99.90;;;;;;5088533;28;20556;-47
2022/04/27 00:04:56;;;;;;;8.63;6.88;;;8.70;99.90;;;;;;5089243;28;20028;-47
2022/04/27 00:07:22;;;;;;;12.52;8.05;;;8.60;99.90;;;;;;5088866;28;20039;-50
2022/04/27 00:09:48;;;;;;;10.10;6.75;;;8.60;99.90;;;;;;5088977;28;20024;-48
2022/04/27 00:12:13;;;;;;;10.18;6.95;;;8.50;99.90;;;;;;5088329;28;20024;-47
2022/04/27 00:14:39;;;;;;;14.27;8.52;;;8.50;99.90;;;;;;5089195;28;20308;-47
2022/04/27 00:17:05;;;;;;;11.25;7.75;;;8.40;99.90;;;;;;5088926;28;20078;-49
2022/04/27 00:19:30;;;;;;;10.45;8.23;;;8.40;99.90;;;;;;5088868;28;20024;-48
2022/04/27 00:21:56;;;;;;;11.48;8.02;;;8.50;99.90;;;;;;5088025;28;20031;-49
2022/04/27 00:24:22;;;;;;;10.65;8.00;;;8.40;99.90;;;;;;5087550;28;20052;-47
2022/04/27 00:26:47;;;;;;;11.98;8.10;;;8.40;99.90;;;;;;5088940;28;20023;-47
2022/04/27 00:29:13;;;;;;;12.15;7.57;;;8.40;99.90;;;;;;5088746;28;20024;-47
2022/04/27 00:31:38;;;;;;;10.02;7.40;;;8.50;99.90;;;;;;5086679;28;20043;-46
2022/04/27 00:34:04;;;;;;;9.80;7.68;;;8.50;99.90;;;;;;5087311;28;20558;-47
2022/04/27 00:36:31;;;;;;;8.63;6.75;;;8.50;99.90;;;;;;5088623;28;20448;-47
2022/04/27 00:38:57;;;;;;;10.65;7.28;;;8.40;99.90;;;;;;5088605;28;20297;-47
2022/04/27 00:41:22;;;;;;;9.80;7.47;;;8.40;99.90;;;;;;5088647;28;20028;-49
2022/04/27 00:43:48;;;;;;;9.15;7.13;;;8.30;99.90;;;;;;5087906;28;20389;-47
2022/04/27 00:46:13;;;;;;;9.13;7.68;;;8.30;99.90;;;;;;5087273;28;20198;-47
2022/04/27 00:48:40;;;;;;;8.50;6.82;;;8.30;99.90;;;;;;5087435;28;20058;-47
2022/04/27 00:51:07;;;;;;;10.20;7.90;;;8.30;99.90;;;;;;5091259;28;20488;-47
2022/04/27 00:53:33;;;;;;;9.82;7.60;;;8.30;99.90;;;;;;5092154;28;20153;-48
2022/04/27 00:55:59;;;;;;;9.02;6.93;;;8.20;99.90;;;;;;5092747;28;20126;-47
2022/04/27 00:58:26;;;;;;;9.32;6.90;;;8.20;99.90;;;;;;5090932;28;20048;-50
2022/04/27 01:00:53;;;;;;;8.00;6.60;;;8.10;99.90;;;;;;5091367;28;20237;-50
2022/04/27 01:03:19;;;;;;;9.23;7.20;;;8.00;99.90;;;;;;5091820;28;20032;-47
2022/04/27 01:05:45;;;;;;;8.23;6.88;;;8.00;99.90;;;;;;5091138;28;20078;-51
2022/04/27 01:08:11;;;;;;;10.48;8.18;;;7.90;99.90;;;;;;5092521;28;20480;-47
2022/04/27 01:10:36;;;;;;;10.90;6.70;;;7.90;99.90;;;;;;5092336;28;20028;-48
2022/04/27 01:13:02;;;;;;;9.27;6.70;;;7.90;99.90;;;;;;5090333;28;20020;-47
2022/04/27 01:15:31;;;;;;;9.52;6.72;;;7.80;99.90;;;;;;5092361;28;20028;-47
2022/04/27 01:18:00;;;;;;;8.00;5.68;;;7.70;99.90;;;;;;5092286;28;20017;-49
2022/04/27 01:20:35;;;;;;;9.93;8.00;;;7.70;99.90;;;;;;5092312;28;20513;-50
2022/04/27 01:23:01;;;;;;;9.48;6.97;;;7.60;99.90;;;;;;5091594;28;20024;-47
2022/04/27 01:25:27;;;;;;;9.48;6.78;;;7.60;99.90;;;;;;5092192;28;20028;-49
2022/04/27 01:27:54;;;;;;;9.43;7.53;;;7.60;99.90;;;;;;5090737;28;20086;-48
2022/04/27 01:30:20;;;;;;;8.68;7.25;;;7.60;99.90;;;;;;5092156;28;20135;-47
2022/04/27 01:32:45;;;;;;;10.77;7.88;;;7.70;99.90;;;;;;5091277;28;20494;-49
2022/04/27 01:35:11;;;;;;;10.98;6.97;;;7.70;99.90;;;;;;5091669;28;20020;-49
2022/04/27 01:40:20;;;;;;;10.93;7.68;;;7.60;99.90;;;;;;5091953;28;20070;-47
2022/04/27 01:42:48;;;;;;;10.20;7.80;;;7.60;99.90;;;;;;5091006;28;20051;-50
2022/04/27 01:45:13;;;;;;;9.45;7.45;;;7.60;99.90;;;;;;5091758;28;20016;-49
2022/04/27 01:47:39;;;;;;;11.88;8.18;;;7.50;99.90;;;;;;5091817;28;20077;-47
2022/04/27 01:50:04;;;;;;;13.68;8.52;;;7.50;99.90;;;;;;5091687;28;20063;-49
2022/04/27 01:55:14;;;;;;;12.32;7.53;;;7.50;99.90;;;;;;5091792;28;20027;-50
2022/04/27 01:57:39;;;;;;;8.93;7.25;;;7.50;99.90;;;;;;5090186;28;20385;-48
2022/04/27 02:00:07;;;;;;;9.02;7.13;;;7.50;99.90;;;;;;5091656;28;20035;-49
2022/04/27 02:02:33;;;;;;;9.32;7.22;;;7.50;99.90;;;;;;5089715;28;20472;-48
2022/04/27 02:04:59;;;;;;;14.23;8.02;;;7.50;99.90;;;;;;5091587;28;20058;-48
2022/04/27 02:07:25;;;;;;;9.77;7.45;;;7.40;99.90;;;;;;5091595;28;20055;-48
2022/04/27 02:09:51;;;;;;;12.10;7.78;;;7.40;99.90;;;;;;5091593;28;20027;-47
2022/04/27 02:12:16;;;;;;;9.27;7.38;;;7.50;99.90;;;;;;5090653;28;20029;-47
2022/04/27 02:14:42;;;;;;;10.13;7.13;;;7.40;99.90;;;;;;5091317;28;20020;-49
2022/04/27 02:17:08;;;;;;;10.95;7.03;;;7.40;99.90;;;;;;5083444;28;20040;-47
2022/04/27 02:19:33;;;;;;;8.80;7.25;;;7.50;99.90;;;;;;5077857;28;20021;-48
2022/04/27 02:21:59;;;;;;;12.82;7.32;;;7.50;99.90;;;;;;5079255;28;20020;-48
2022/04/27 02:24:25;;;;;;;10.70;7.45;;;7.50;99.90;;;;;;5081401;28;20028;-48
2022/04/27 02:26:52;;;;;;;10.88;7.93;;;7.50;99.90;;;;;;5078504;28;20359;-48
2022/04/27 02:29:20;;;;;;;11.05;7.68;;;7.50;99.90;;;;;;5081733;28;20081;-49
2022/04/27 02:31:45;;;;;;;9.57;7.53;;;7.50;99.90;;;;;;5079588;28;20105;-50
2022/04/27 02:34:11;;;;;;;10.75;8.13;;;7.50;99.90;;;;;;5079776;28;20069;-46
2022/04/27 02:36:36;;;;;;;9.90;7.05;;;7.50;99.90;;;;;;5078510;28;20107;-45
2022/04/27 02:39:02;;;;;;;10.63;8.23;;;7.40;99.90;;;;;;5080727;28;20021;-50
2022/04/27 02:41:28;;;;;;;10.00;7.60;;;7.40;99.90;;;;;;5078668;28;20598;-49
2022/04/27 02:43:54;;;;;;;14.57;8.43;;;7.40;99.90;;;;;;5080422;28;20526;-48
2022/04/27 02:46:20;;;;;;;11.40;8.00;;;7.40;99.90;;;;;;5080464;28;20102;-46
2022/04/27 02:54:15;;;;;;;12.63;8.02;;;7.30;99.90;;;;;;5079423;28;20109;-50
2022/04/27 02:56:40;;;;;;;7.90;6.93;;;7.30;99.90;;;;;;5081880;28;20103;-46
2022/04/27 02:59:06;;;;;;;8.57;6.90;;;7.30;99.90;;;;;;5081587;28;20444;-46
2022/04/27 03:01:31;;;;;;;11.73;7.53;;;7.20;99.90;;;;;;5078537;28;20036;-46
2022/04/27 03:03:57;;;;;;;9.85;7.15;;;7.10;99.90;;;;;;5080616;28;20574;-47
2022/04/27 03:06:22;;;;;;;12.23;6.97;;;7.10;99.90;;;;;;5090400;28;20501;-47
2022/04/27 03:08:48;;;;;;;11.40;6.57;;;7.00;99.90;;;;;;5090171;28;20489;-46
2022/04/27 03:11:13;;;;;;;8.02;6.32;;;7.00;99.90;;;;;;5090074;28;20062;-46
2022/04/27 03:13:39;;;;;;;11.10;6.95;;;6.80;99.90;;;;;;5089185;28;20035;-47
2022/04/27 03:16:04;;;;;;;8.98;6.68;;;6.80;99.90;;;;;;5090337;28;20604;-47
2022/04/27 03:18:30;;;;;;;11.93;7.65;;;6.80;99.90;;;;;;5090179;28;20170;-47
2022/04/27 03:20:55;;;;;;;10.65;7.35;;;6.70;99.90;;;;;;5089995;28;20031;-46
2022/04/27 03:23:21;;;;;;;10.68;7.68;;;6.60;99.90;;;;;;5089141;28;20028;-47
2022/04/27 03:25:46;;;;;;;8.55;6.55;;;6.60;99.90;;;;;;5088482;28;20044;-48
2022/04/27 03:28:12;;;;;;;10.73;7.43;;;6.60;99.90;;;;;;5078471;28;20367;-48
2022/04/27 03:30:37;;;;;;;9.00;6.57;;;6.50;99.90;;;;;;5078851;28;20028;-48
2022/04/27 03:33:03;;;;;;;8.38;6.43;;;6.50;99.90;;;;;;5078192;28;20166;-47
2022/04/27 03:35:29;;;;;;;10.68;7.50;;;6.50;99.90;;;;;;5078257;28;20555;-47
2022/04/27 03:37:55;;;;;;;10.60;7.85;;;6.40;99.90;;;;;;5079119;28;20031;-47
2022/04/27 03:40:22;;;;;;;12.55;7.68;;;6.30;99.90;;;;;;5079906;28;20097;-48
2022/04/27 03:42:48;;;;;;;13.88;8.00;;;6.30;99.90;;;;;;5079128;28;20021;-47
2022/04/27 03:45:13;;;;;;;8.30;6.88;;;6.30;99.90;;;;;;5075599;28;20035;-47
2022/04/27 03:47:39;;;;;;;9.10;6.85;;;6.30;99.90;;;;;;5072338;28;20401;-47
2022/04/27 03:50:05;;;;;;;10.15;6.78;;;6.20;99.90;;;;;;5079469;28;20537;-47
2022/04/27 03:52:31;;;;;;;12.07;7.78;;;6.30;99.90;;;;;;5076946;28;20021;-47
2022/04/27 03:55:00;;;;;;;10.43;8.13;;;6.20;99.90;;;;;;5079606;28;20016;-47
2022/04/27 03:57:27;;;;;;;14.95;9.10;;;6.20;99.90;;;;;;5086460;28;20920;-46
2022/04/27 03:59:53;;;;;;;13.20;9.18;;;6.20;99.90;;;;;;5088896;28;20020;-47
2022/04/27 04:02:18;;;;;;;13.50;8.35;;;6.20;99.90;;;;;;5088660;28;20038;-46
2022/04/27 04:04:44;;;;;;;12.40;8.32;;;6.20;99.90;;;;;;5089259;28;20020;-49
2022/04/27 04:07:10;;;;;;;11.60;8.45;;;6.20;99.90;;;;;;5088986;28;20312;-47
2022/04/27 04:09:35;;;;;;;10.07;7.90;;;6.20;99.90;;;;;;5089299;28;20016;-47
2022/04/27 04:12:01;;;;;;;10.15;7.95;;;6.20;99.90;;;;;;5072123;28;20039;-47
2022/04/27 04:14:27;;;;;;;14.40;8.60;;;6.20;99.90;;;;;;5069012;28;20067;-49
2022/04/27 04:16:52;;;;;;;10.80;7.70;;;6.10;99.90;;;;;;5068690;28;20249;-48
2022/04/27 04:19:18;;;;;;;10.50;7.50;;;6.20;99.90;;;;;;5071206;28;20270;-47
2022/04/27 04:21:43;;;;;;;12.13;7.90;;;6.10;99.90;;;;;;5075733;28;20473;-48
2022/04/27 04:24:09;;;;;;;11.23;8.32;;;6.20;99.90;;;;;;5076060;28;20036;-47
2022/04/27 04:29:18;;;;;;;10.77;7.80;;;6.20;99.90;;;;;;5068653;28;20077;-48
2022/04/27 04:31:44;;;;;;;13.23;8.45;;;6.20;99.90;;;;;;5076362;28;20028;-48
2022/04/27 04:34:09;;;;;;;14.52;8.48;;;6.20;99.90;;;;;;5086827;28;20024;-47
2022/04/27 04:36:34;;;;;;;15.70;9.27;;;6.20;99.90;;;;;;5071046;28;20453;-48
2022/04/27 04:39:00;;;;;;;13.20;8.50;;;6.20;99.90;;;;;;5068360;28;20020;-47
2022/04/27 04:41:25;;;;;;;10.68;7.93;;;6.20;99.90;;;;;;5068311;28;20498;-47
2022/04/27 04:43:51;;;;;;;12.40;8.23;;;6.20;99.90;;;;;;5067719;28;20320;-47
2022/04/27 04:46:16;;;;;;;13.30;9.60;;;6.20;99.90;;;;;;5068523;28;20382;-47
2022/04/27 04:48:42;;;;;;;11.80;8.70;;;6.20;99.90;;;;;;5071841;28;20031;-48
2022/04/27 04:51:07;;;;;;;12.13;8.05;;;6.20;99.90;;;;;;5077061;28;20491;-48
2022/04/27 04:53:33;;;;;;;14.07;8.73;;;6.20;99.90;;;;;;5079028;28;20020;-48
2022/04/27 04:55:58;;;;;;;13.07;8.40;;;6.20;99.90;;;;;;5074721;28;20070;-47
2022/04/27 04:58:24;;;;;;;14.40;9.00;;;6.20;99.90;;;;;;5082188;28;20106;-49
2022/04/27 05:00:49;;;;;;;12.60;8.77;;;6.30;99.90;;;;;;5079780;28;20040;-46
2022/04/27 05:03:24;;;;;;;14.48;9.20;;;6.30;99.90;;;;;;5080500;28;20021;-49
2022/04/27 05:05:49;;;;;;;12.38;8.93;;;6.30;99.90;;;;;;5077984;28;20025;-48
2022/04/27 05:08:15;;;;;;;13.23;8.63;;;6.40;99.90;;;;;;5083756;28;20066;-47
2022/04/27 05:10:41;;;;;;;11.50;8.30;;;6.50;99.90;;;;;;5078270;28;20017;-48
2022/04/27 05:13:06;;;;;;;12.05;8.27;;;6.50;99.90;;;;;;5076141;28;20031;-47
2022/04/27 05:15:32;;;;;;;9.82;7.70;;;6.50;99.90;;;;;;5078850;28;20039;-47
2022/04/27 05:17:57;;;;;;;11.07;8.10;;;6.60;99.90;;;;;;5080295;28;20024;-45
2022/04/27 05:20:23;;;;;;;10.27;7.82;;;6.70;99.90;;;;;;5079314;28;20028;-46
2022/04/27 05:22:48;;;;;;;9.85;7.60;;;6.70;99.90;;;;;;5076632;28;20115;-45
2022/04/27 05:25:14;;;;;;;12.65;8.68;;;6.80;99.90;;;;;;5076200;28;20139;-47
2022/04/27 05:27:39;;;;;;;12.40;8.38;;;6.80;99.90;;;;;;5075586;28;20482;-46
2022/04/27 05:32:51;;;;;;;17.73;8.88;;;6.90;99.90;;;;;;5078348;28;20081;-50
2022/04/27 05:35:17;;;;;;;11.38;8.68;;;6.90;99.90;;;;;;5076181;28;20116;-48
2022/04/27 05:37:43;;;;;;;16.42;9.13;;;7.00;99.90;;;;;;5077525;28;20402;-46
2022/04/27 05:40:10;;;;;;;14.45;9.20;;;7.00;99.90;;;;;;5081120;28;20647;-47
2022/04/27 05:42:36;;;;;;;15.60;10.00;;;7.10;99.90;;;;;;5085845;28;20099;-50
2022/04/27 05:45:07;;;;;;;11.60;8.45;;;7.10;99.90;;;;;;5080848;28;20070;-46
2022/04/27 05:47:34;;;;;;;12.13;8.35;;;7.20;99.90;;;;;;5079953;28;20097;-47
2022/04/27 05:49:59;;;;;;;13.10;9.65;;;7.20;99.90;;;;;;5078900;28;20044;-49
2022/04/27 05:52:25;;;;;;;16.83;8.57;;;7.20;99.90;;;;;;5082288;28;20067;-47
2022/04/27 05:54:51;;;;;;;13.43;9.98;;;7.30;99.90;;;;;;5092985;28;20039;-47
2022/04/27 05:57:17;;;;;;;13.13;9.45;;;7.40;99.90;;;;;;5078357;28;20036;-47
2022/04/27 05:59:43;;;;;;;12.55;8.85;;;7.40;99.90;;;;;;5072510;28;20039;-46
2022/04/27 06:02:09;;;;;;;15.60;9.23;;;7.50;99.90;;;;;;5077128;28;20178;-46
2022/04/27 06:04:35;;;;;;;11.02;7.90;;;7.60;99.90;;;;;;5091688;28;20032;-47
2022/04/27 06:07:00;;;;;;;12.40;8.85;;;7.60;99.90;;;;;;5092867;28;20032;-47
2022/04/27 06:09:26;;;;;;;12.90;8.95;;;7.70;99.90;;;;;;5092203;28;20024;-49
2022/04/27 06:11:52;;;;;;;13.52;9.43;;;7.80;99.90;;;;;;5090873;28;20313;-47
2022/04/27 06:14:17;;;;;;;14.57;9.75;;;7.80;99.90;;;;;;5092782;28;20028;-47
2022/04/27 06:16:43;;;;;;;13.65;8.32;;;7.90;99.90;;;;;;5091627;28;20020;-47
2022/04/27 06:19:09;;;;;;;13.02;8.23;;;8.00;99.90;;;;;;5091412;28;20049;-48
2022/04/27 06:21:35;;;;;;;16.13;10.23;;;8.00;99.90;;;;;;5090871;28;20028;-48
2022/04/27 06:24:04;;;;;;;13.32;8.75;;;8.10;99.90;;;;;;5086237;28;20035;-48
2022/04/27 06:26:33;;;;;;;14.60;9.35;;;8.20;99.90;;;;;;5070976;28;20375;-46
2022/04/27 06:29:01;;;;;;;14.38;9.13;;;8.30;99.90;;;;;;5074272;28;20385;-45
2022/04/27 06:31:27;;;;;;;14.20;8.90;;;8.30;99.90;;;;;;5088925;28;20031;-45
2022/04/27 06:33:53;;;;;;;9.77;7.88;;;8.40;99.90;;;;;;5091708;28;20020;-45
2022/04/27 06:36:18;;;;;;;12.98;9.10;;;8.50;99.90;;;;;;5090840;28;20031;-47
2022/04/27 06:38:44;;;;;;;12.10;9.27;;;8.60;99.90;;;;;;5092321;28;20027;-46
2022/04/27 06:41:09;;;;;;;14.23;10.05;;;8.70;99.90;;;;;;5092219;28;20024;-44
2022/04/27 06:43:35;;;;;;;15.40;9.02;;;8.80;99.90;;;;;;5082025;28;20730;-46
2022/04/27 06:46:01;;;;;;;11.90;7.60;;;8.90;99.90;;;;;;5085657;28;20090;-45
2022/04/27 06:48:27;;;;;;;10.57;8.10;;;8.90;99.90;;;;;;5091252;28;20032;-46
2022/04/27 06:50:52;;;;;;;13.85;9.35;;;9.00;99.90;;;;;;5082406;28;20099;-47
2022/04/27 06:53:18;;;;;;;13.45;9.68;;;9.20;99.90;;;;;;5074041;28;20103;-46
2022/04/27 06:55:44;;;;;;;13.48;9.27;;;9.20;99.90;;;;;;5080908;28;20501;-46
2022/04/27 06:58:09;;;;;;;10.93;8.50;;;9.40;99.90;;;;;;5081806;28;20510;-45
2022/04/27 07:00:36;;;;;;;10.10;7.20;;;9.50;99.90;;;;;;5080403;28;20016;-45
2022/04/27 07:03:04;;;;;;;14.80;8.48;;;9.50;99.90;;;;;;5077981;28;20477;-45
2022/04/27 07:05:29;;;;;;;88.60;51.72;;;9.70;99.90;;;;;;5080054;28;20032;-47
2022/04/27 07:07:55;;;;;;;59.03;34.75;;;9.70;99.90;;;;;;5081717;28;20031;-46
2022/04/27 07:10:20;;;;;;;16.35;10.77;;;9.90;99.90;;;;;;5080728;28;20020;-46
2022/04/27 07:13:06;;;;;;;13.45;8.95;;;9.90;99.90;;;;;;5077577;28;20101;-46
2022/04/27 07:15:32;;;;;;;12.00;8.48;;;10.10;99.90;;;;;;5063046;28;20570;-46
2022/04/27 07:17:58;;;;;;;12.00;8.20;;;10.20;99.90;;;;;;5074628;28;20040;-45
2022/04/27 07:20:23;;;;;;;13.27;7.75;;;10.30;99.90;;;;;;5076422;28;20512;-45
2022/04/27 07:22:49;;;;;;;12.80;9.05;;;10.40;99.90;;;;;;5075283;28;20440;-46
2022/04/27 07:25:18;;;;;;;11.43;8.02;;;10.50;99.90;;;;;;5079231;28;20056;-48
2022/04/27 07:27:43;;;;;;;15.02;9.07;;;10.60;99.90;;;;;;5079423;28;20008;-47
2022/04/27 07:30:09;;;;;;;11.98;7.88;;;10.80;99.90;;;;;;5075008;28;20381;-47
2022/04/27 07:32:35;;;;;;;12.23;7.82;;;10.90;99.90;;;;;;5076230;28;20032;-47
2022/04/27 07:35:00;;;;;;;8.60;7.13;;;11.00;99.90;;;;;;5080936;28;20021;-46
2022/04/27 07:37:26;;;;;;;8.48;6.97;;;11.10;99.90;;;;;;5079792;28;20032;-46
2022/04/27 07:39:52;;;;;;;10.82;7.15;;;11.20;99.90;;;;;;5077645;28;20024;-46
2022/04/27 07:42:18;;;;;;;11.38;7.22;;;11.30;99.90;;;;;;5078028;28;20028;-45
2022/04/27 07:44:43;;;;;;;9.90;6.82;;;11.40;99.90;;;;;;5075953;28;20240;-46
2022/04/27 07:47:09;;;;;;;8.90;7.22;;;11.60;99.30;;;;;;5076470;28;20418;-46
2022/04/27 07:49:34;;;;;;;12.60;7.03;;;11.80;98.30;;;;;;5078814;28;20420;-45
2022/04/27 07:52:00;;;;;;;10.02;7.22;;;12.00;99.00;;;;;;5079346;28;20024;-46
2022/04/27 07:54:25;;;;;;;9.85;7.10;;;12.20;99.90;;;;;;5084222;28;20031;-46
2022/04/27 07:56:51;;;;;;;11.18;7.03;;;12.30;96.90;;;;;;5089383;28;20077;-46
2022/04/27 07:59:16;;;;;;;9.05;6.50;;;12.50;96.80;;;;;;5087712;28;20020;-46
2022/04/27 08:01:42;;;;;;;10.85;7.53;;;12.70;97.60;;;;;;5068450;28;20024;-47
2022/04/27 08:04:07;;;;;;;14.60;7.15;;;13.00;94.50;;;;;;5082941;28;20039;-46
2022/04/27 08:06:33;;;;;;;8.82;6.50;;;13.40;96.80;;;;;;5089017;28;20031;-46
2022/04/27 08:08:58;;;;;;;8.65;6.10;;;13.80;95.40;;;;;;5088434;28;20078;-46
2022/04/27 08:11:24;;;;;;;8.48;6.07;;;14.40;94.20;;;;;;5081269;28;20029;-48
2022/04/27 08:13:49;;;;;;;7.47;5.60;;;15.40;90.90;;;;;;5068508;28;20453;-46
2022/04/27 08:16:15;;;;;;;7.93;5.47;;;17.00;82.40;;;;;;5069476;28;20025;-49
2022/04/27 08:18:41;;;;;;;5.63;4.70;;;18.40;71.00;;;;;;5069956;28;20124;-47
2022/04/27 08:21:15;;;;;;;9.07;5.43;;;19.60;66.30;;;;;;5087602;28;20088;-49
2022/04/27 08:23:42;;;;;;;5.88;5.20;;;20.80;59.30;;;;;;5087052;28;20281;-46
2022/04/27 08:26:10;;;;;;;5.88;4.78;;;22.00;54.10;;;;;;5085807;28;20024;-48
2022/04/27 08:28:38;;;;;;;4.88;4.40;;;23.10;51.30;;;;;;5068803;28;20443;-47
2022/04/27 08:31:05;;;;;;;5.95;4.53;;;23.60;51.80;;;;;;5069627;28;20093;-48
2022/04/27 08:33:31;;;;;;;9.23;5.50;;;23.40;51.80;;;;;;5086283;28;20028;-47
2022/04/27 08:36:00;;;;;;;8.50;4.10;;;23.90;49.30;;;;;;5087213;28;20022;-47
2022/04/27 08:38:27;;;;;;;5.03;3.63;;;24.60;50.70;;;;;;5088714;28;20515;-48
2022/04/27 08:40:54;;;;;;;5.75;4.05;;;25.30;47.30;;;;;;5087948;28;20032;-47
2022/04/27 08:43:20;;;;;;;6.85;5.38;;;25.50;49.00;;;;;;5076710;28;20107;-48
2022/04/27 08:45:46;;;;;;;7.68;5.25;;;25.70;46.30;;;;;;5068642;28;20363;-47
2022/04/27 08:48:14;;;;;;;9.45;6.80;;;26.00;48.60;;;;;;5068385;28;20042;-47
2022/04/27 08:50:40;;;;;;;5.78;5.18;;;26.40;47.10;;;;;;5075020;28;20032;-50
2022/04/27 08:53:06;;;;;;;5.35;4.78;;;26.00;47.00;;;;;;5087665;28;20020;-48
2022/04/27 08:55:32;;;;;;;7.90;5.22;;;25.50;47.60;;;;;;5087115;28;20043;-48
2022/04/27 08:58:14;;;;;;;8.27;5.50;;;26.10;45.60;;;;;;5088890;28;20493;-48
2022/04/27 09:00:41;;;;;;;4.80;4.30;;;25.70;46.40;;;;;;5088118;28;20059;-51
2022/04/27 09:03:22;;;;;;;10.05;5.55;;;26.50;46.40;;;;;;5087904;28;20040;-46
2022/04/27 09:05:53;;;;;;;7.25;5.78;;;26.70;46.50;;;;;;5086568;28;20025;-47
2022/04/27 09:08:19;;;;;;;8.93;6.28;;;26.90;46.20;;;;;;5088242;28;20043;-49
2022/04/27 09:10:46;;;;;;;5.53;5.03;;;27.20;44.00;;;;;;5088746;28;20028;-48
2022/04/27 09:13:11;;;;;;;7.22;4.80;;;27.10;44.10;;;;;;5091129;28;20016;-47
2022/04/27 09:15:37;;;;;;;7.13;5.68;;;27.50;42.10;;;;;;5092391;28;20027;-47
2022/04/27 09:21:00;;;;;;;6.55;5.15;;;26.10;44.60;;;;;;5091460;28;20043;-47
2022/04/27 09:23:36;;;;;;;9.02;4.55;;;26.40;46.30;;;;;;5091623;28;20035;-46
2022/04/27 09:26:22;;;;;;;6.55;5.93;;;26.20;45.50;;;;;;5092191;28;20887;-46
2022/04/27 09:28:49;;;;;;;6.55;5.80;;;25.30;44.90;;;;;;5082340;28;20056;-48
2022/04/27 09:31:33;;;;;;;9.23;6.30;;;24.90;44.40;;;;;;5081777;28;20040;-47
2022/04/27 09:34:03;;;;;;;7.32;6.22;;;25.20;42.80;;;;;;5080139;28;20108;-47
2022/04/27 09:36:29;;;;;;;6.20;5.60;;;26.10;45.40;;;;;;5087112;28;20031;-46
2022/04/27 09:38:57;;;;;;;7.35;5.65;;;26.90;44.70;;;;;;5085369;28;20024;-46
2022/04/27 09:41:41;;;;;;;5.63;5.00;;;26.70;42.80;;;;;;5077412;28;20482;-46
2022/04/27 09:44:25;;;;;;;6.93;6.22;;;27.80;42.30;;;;;;5082311;28;20119;-47
2022/04/27 09:46:51;;;;;;;7.05;6.15;;;27.40;41.10;;;;;;5082293;28;20063;-46
2022/04/27 09:49:16;;;;;;;7.35;6.13;;;26.90;42.10;;;;;;5077963;28;20060;-48
2022/04/27 09:51:48;;;;;;;5.70;5.00;;;27.30;40.50;;;;;;5080539;28;20023;-48
2022/04/27 09:54:19;;;;;;;6.43;5.53;;;27.90;43.00;;;;;;5079571;28;20025;-48
2022/04/27 09:56:50;;;;;;;4.90;3.95;;;28.50;41.90;;;;;;5079354;28;20063;-47
2022/04/27 09:59:17;;;;;;;8.60;5.05;;;28.80;41.40;;;;;;5078989;28;20103;-46
2022/04/27 10:01:43;;;;;;;5.50;5.00;;;28.60;40.60;;;;;;5080634;28;20187;-47
2022/04/27 10:04:10;;;;;;;5.93;5.43;;;28.40;40.60;;;;;;5079777;28;20115;-47
2022/04/27 10:06:36;;;;;;;5.15;4.75;;;27.80;42.30;;;;;;5079698;28;20024;-49
2022/04/27 10:09:04;;;;;;;5.38;4.70;;;28.30;39.90;;;;;;5079392;28;20085;-47
2022/04/27 10:11:32;;;;;;;7.25;4.80;;;28.90;40.10;;;;;;5079045;28;20025;-46
2022/04/27 10:13:57;;;;;;;4.72;4.28;;;29.10;40.50;;;;;;5077332;28;20019;-46
2022/04/27 10:16:25;;;;;;;6.72;4.65;;;29.60;40.70;;;;;;5080773;28;20534;-50
2022/04/27 10:18:51;;;;;;;6.45;5.43;;;29.00;39.00;;;;;;5076784;28;20031;-48
2022/04/27 10:21:39;;;;;;;8.38;6.00;;;28.30;39.90;;;;;;5077245;28;20028;-48
2022/04/27 10:24:06;;;;;;;6.47;4.85;;;27.00;41.20;;;;;;5079762;28;20050;-49
2022/04/27 10:26:32;;;;;;;8.57;5.22;;;26.70;42.30;;;;;;5086798;28;20442;-49
2022/04/27 10:29:00;;;;;;;4.97;4.28;;;27.30;41.10;;;;;;5091053;28;20059;-48
2022/04/27 10:31:40;;;;;;;4.57;4.18;;;27.40;41.70;;;;;;5071535;28;20036;-50
2022/04/27 10:34:18;;;;;;;6.93;5.63;;;27.90;41.00;;;;;;5071149;28;20024;-47
2022/04/27 10:36:47;;;;;;;6.50;5.32;;;28.10;40.20;;;;;;5081074;28;20024;-47
2022/04/27 10:39:12;;;;;;;5.22;4.60;;;28.50;40.50;;;;;;5079619;28;20016;-47
2022/04/27 10:42:02;;;;;;;7.82;5.40;;;28.50;41.90;;;;;;5080896;28;20376;-50
2022/04/27 10:44:46;;;;;;;6.55;4.68;;;28.20;41.60;;;;;;5088850;28;20028;-48
2022/04/27 10:47:18;;;;;;;6.60;5.85;;;27.80;38.70;;;;;;5077828;28;20054;-48
2022/04/27 10:49:46;;;;;;;9.88;6.05;;;26.70;40.20;;;;;;5081284;28;20580;-48
2022/04/27 10:52:12;;;;;;;7.32;5.10;;;25.20;42.80;;;;;;5085278;28;20025;-48
2022/04/27 10:54:39;;;;;;;8.50;5.60;;;24.30;44.70;;;;;;5070941;28;20029;-48
2022/04/27 10:57:17;;;;;;;7.93;5.57;;;23.60;46.40;;;;;;5069509;28;20016;-47
2022/04/27 11:00:02;;;;;;;5.22;4.38;;;22.70;46.80;;;;;;5070468;28;20029;-46
2022/04/27 11:02:39;;;;;;;11.93;9.82;;;22.30;50.80;;;;;;5087583;28;20140;-46
2022/04/27 11:05:10;;;;;;;8.80;6.70;;;21.70;46.20;;;;;;5090647;28;20024;-46
2022/04/27 11:07:56;;;;;;;7.95;6.13;;;21.50;46.80;;;;;;5090570;28;20031;-47
2022/04/27 11:10:22;;;;;;;7.97;5.32;;;21.10;47.10;;;;;;5089197;28;20488;-47
2022/04/27 11:12:50;;;;;;;6.88;5.53;;;21.70;48.50;;;;;;5087428;28;20012;-48
2022/04/27 11:15:17;;;;;;;5.85;4.20;;;22.90;44.80;;;;;;5090522;28;20016;-49
2022/04/27 11:17:43;;;;;;;5.95;5.15;;;24.50;47.10;;;;;;5090041;28;20409;-47
2022/04/27 11:20:36;;;;;;;7.00;4.90;;;25.90;44.60;;;;;;5081362;28;20111;-49
2022/04/27 11:23:07;;;;;;;7.07;4.55;;;26.70;41.30;;;;;;5074734;28;20024;-46
2022/04/27 11:25:35;;;;;;;6.68;5.38;;;27.50;41.80;;;;;;5070244;28;20474;-48
2022/04/27 11:28:02;;;;;;;6.00;5.30;;;28.80;39.10;;;;;;5069718;28;20111;-47
2022/04/27 11:30:29;;;;;;;6.65;4.90;;;28.90;40.80;;;;;;5083226;28;20107;-48
2022/04/27 11:32:55;;;;;;;5.30;4.13;;;29.10;38.30;;;;;;5088743;28;20064;-47
2022/04/27 11:35:23;;;;;;;4.90;3.92;;;29.30;39.50;;;;;;5089394;28;20426;-49
2022/04/27 11:37:53;;;;;;;5.78;4.50;;;29.00;41.20;;;;;;5089603;28;20099;-49
2022/04/27 11:40:25;;;;;;;7.70;5.10;;;27.80;40.20;;;;;;5070836;28;20170;-49
2022/04/27 11:42:52;;;;;;;6.75;5.13;;;27.80;39.90;;;;;;5082049;28;20032;-47
2022/04/27 11:45:20;;;;;;;6.28;5.47;;;27.80;39.10;;;;;;5089949;28;20126;-47
2022/04/27 11:48:03;;;;;;;7.53;6.20;;;27.70;40.20;;;;;;5083607;28;20021;-47
2022/04/27 11:50:33;;;;;;;7.60;5.80;;;27.30;40.50;;;;;;5082538;28;20042;-46
2022/04/27 11:53:00;;;;;;;;;;;27.40;44.10;;;;;;5082174;28;20035;-47
2022/04/27 11:55:26;;;;;;;10.70;7.10;;;26.90;39.70;;;;;;5077805;28;19904;-46
2022/04/27 11:57:51;;;;;;;7.82;6.57;;;27.00;39.00;;;;;;5089668;28;20333;-47
2022/04/27 12:00:26;;;;;;;7.45;6.57;;;26.10;40.90;;;;;;5088451;28;20331;-46
2022/04/27 12:03:06;;;;;;;8.48;6.50;;;25.50;44.00;;;;;;5088142;28;20028;-47
2022/04/27 12:05:37;;;;;;;11.10;6.60;;;25.50;44.90;;;;;;5084843;28;20008;-46
2022/04/27 12:08:09;;;;;;;10.38;7.68;;;25.20;44.80;;;;;;5075059;28;20104;-49
2022/04/27 12:10:42;;;;;;;9.07;7.30;;;25.10;46.60;;;;;;5077607;28;20029;-47
2022/04/27 12:13:09;;;;;;;10.85;7.68;;;24.50;45.90;;;;;;5077183;28;20397;-48
2022/04/27 12:15:41;;;;;;;10.90;7.22;;;24.10;46.10;;;;;;5054122;28;20441;-48
2022/04/27 12:18:13;;;;;;;9.23;6.82;;;23.90;45.70;;;;;;5058108;28;20383;-48
2022/04/27 12:20:40;;;;;;;8.20;7.13;;;23.60;45.70;;;;;;5061015;28;20028;-46
2022/04/27 12:23:16;;;;;;;12.32;7.95;;;23.30;48.80;;;;;;5057030;28;20068;-46
2022/04/27 12:25:55;;;;;;;10.90;6.70;;;23.40;49.80;;;;;;5059315;28;20046;-47
2022/04/27 12:28:34;;;;;;;9.13;8.13;;;23.70;47.40;;;;;;5058585;28;20274;-46
2022/04/27 12:31:05;;;;;;;9.93;6.88;;;23.50;45.10;;;;;;5056793;28;20025;-48
2022/04/27 12:33:48;;;;;;;13.55;7.22;;;23.50;47.20;;;;;;5057237;28;20470;-45
2022/04/27 12:39:12;;;;;;;8.93;6.40;;;23.10;47.90;;;;;;5059145;28;20183;-45
2022/04/27 12:41:45;;;;;;;9.95;7.25;;;22.50;48.30;;;;;;5056681;28;20043;-46
2022/04/27 12:44:11;;;;;;;11.68;7.88;;;22.50;49.30;;;;;;5058401;28;20070;-47
2022/04/27 12:46:53;;;;;;;9.30;8.23;;;22.50;49.00;;;;;;5056537;28;20033;-49
2022/04/27 12:49:24;;;;;;;9.25;7.35;;;23.00;48.30;;;;;;5058958;28;20025;-50
2022/04/27 12:51:50;;;;;;;11.00;8.65;;;23.00;48.70;;;;;;5056741;28;20188;-48
2022/04/27 12:54:15;;;;;;;8.77;7.88;;;22.50;46.20;;;;;;5057293;28;20077;-47
2022/04/27 12:56:41;;;;;;;11.60;8.60;;;22.70;46.90;;;;;;5059211;28;20103;-46
2022/04/27 12:59:12;;;;;;;11.73;9.32;;;22.60;47.10;;;;;;5057688;28;20017;-47
2022/04/27 13:01:38;;;;;;;13.75;9.38;;;22.20;47.00;;;;;;5055632;28;20494;-47
2022/04/27 13:04:04;;;;;;;12.93;9.20;;;21.40;50.70;;;;;;5058702;28;20474;-46
2022/04/27 13:06:30;;;;;;;14.00;8.95;;;21.70;47.10;;;;;;5056003;28;20040;-50
2022/04/27 13:11:55;;;;;;;10.70;6.53;;;21.60;48.90;;;;;;5054284;28;20130;-47
2022/04/27 13:11:55;;;;;;;9.18;7.10;;;21.90;50.70;;;;;;5054692;28;20021;-49